TimePDT,TemperatureF,Dew PointF,Humidity,Sea Level PressureIn,VisibilityMPH,Wind Direction,Wind SpeedMPH,Gust SpeedMPH,PrecipitationIn,Events,Conditions,WindDirDegrees,DateUTC
12:15 AM,37.4,17.6,45,30.08,10.0,South,3.5,-,N/A,,Clear,190,2013-10-08 07:15:00
12:35 AM,39.2,15.8,39,30.07,10.0,Calm,Calm,-,N/A,,Clear,0,2013-10-08 07:35:00
12:55 AM,35.6,17.6,48,30.07,10.0,SSE,3.5,-,N/A,,Clear,160,2013-10-08 07:55:00
1:15 AM,35.6,17.6,48,30.07,10.0,Calm,Calm,-,N/A,,Clear,0,2013-10-08 08:15:00
1:35 AM,32.0,17.6,55,30.07,10.0,Calm,Calm,-,N/A,,Clear,0,2013-10-08 08:35:00
1:55 AM,32.0,15.8,51,30.08,10.0,Calm,Calm,-,N/A,,Clear,0,2013-10-08 08:55:00
2:15 AM,32.0,15.8,51,30.08,10.0,SSE,3.5,-,N/A,,Clear,160,2013-10-08 09:15:00
2:35 AM,28.4,15.8,59,30.07,10.0,Calm,Calm,-,N/A,,Clear,0,2013-10-08 09:35:00
2:55 AM,32.0,15.8,51,30.07,10.0,Calm,Calm,-,N/A,,Clear,0,2013-10-08 09:55:00
3:15 AM,26.6,15.8,64,30.06,10.0,Calm,Calm,-,N/A,,Clear,0,2013-10-08 10:15:00
3:35 AM,28.4,17.6,64,30.07,10.0,Calm,Calm,-,N/A,,Clear,0,2013-10-08 10:35:00
3:55 AM,28.4,17.6,64,30.07,10.0,Calm,Calm,-,N/A,,Clear,0,2013-10-08 10:55:00
4:15 AM,28.4,17.6,64,30.07,10.0,Calm,Calm,-,N/A,,Clear,0,2013-10-08 11:15:00
4:35 AM,24.8,17.6,74,30.07,10.0,South,3.5,-,N/A,,Clear,170,2013-10-08 11:35:00
4:55 AM,24.8,15.8,69,30.07,10.0,Calm,Calm,-,N/A,,Clear,0,2013-10-08 11:55:00
5:15 AM,26.6,15.8,64,30.07,10.0,Calm,Calm,-,N/A,,Clear,0,2013-10-08 12:15:00
5:35 AM,26.6,15.8,64,30.07,10.0,Calm,Calm,-,N/A,,Clear,0,2013-10-08 12:35:00
5:55 AM,23.0,14.0,68,30.08,10.0,Calm,Calm,-,N/A,,Clear,0,2013-10-08 12:55:00
6:15 AM,21.2,14.0,74,30.08,10.0,SSW,3.5,-,N/A,,Clear,200,2013-10-08 13:15:00
6:35 AM,23.0,14.0,68,30.07,10.0,Calm,Calm,-,N/A,,Clear,0,2013-10-08 13:35:00
6:55 AM,23.0,14.0,68,30.08,10.0,Calm,Calm,-,N/A,,Clear,0,2013-10-08 13:55:00
7:45 AM,23.0,15.8,74,30.08,10.0,South,3.5,-,N/A,,Clear,190,2013-10-08 14:45:00
8:45 AM,32.0,15.8,51,30.07,10.0,Calm,Calm,-,N/A,,Clear,0,2013-10-08 15:45:00
9:45 AM,41.0,15.8,36,30.06,10.0,Calm,Calm,-,N/A,,Clear,0,2013-10-08 16:45:00
10:50 AM,48.2,17.6,30,30.04,10.0,NNW,5.8,-,N/A,,Partly Cloudy,340,2013-10-08 17:50:00
11:45 AM,53.6,17.6,24,30.00,10.0,Calm,Calm,-,N/A,,Scattered Clouds,0,2013-10-08 18:45:00
12:45 PM,59.0,44.6,59,29.96,10.0,NE,5.8,-,N/A,,Mostly Cloudy,40,2013-10-08 19:45:00
1:50 PM,60.8,17.6,19,29.93,10.0,West,11.5,16.1,N/A,,Mostly Cloudy,270,2013-10-08 20:50:00
2:55 PM,57.2,19.4,23,29.92,10.0,West,11.5,-,N/A,,Mostly Cloudy,270,2013-10-08 21:55:00
3:45 PM,57.2,21.2,25,29.91,10.0,West,12.7,18.4,N/A,,Mostly Cloudy,260,2013-10-08 22:45:00
4:45 PM,55.4,21.2,26,29.89,10.0,SSW,9.2,-,N/A,,Mostly Cloudy,210,2013-10-08 23:45:00
5:55 PM,55.4,19.4,25,29.87,10.0,WSW,8.1,-,N/A,,Clear,240,2013-10-09 00:55:00
6:15 PM,53.6,21.2,28,29.87,10.0,WSW,10.4,-,N/A,,Clear,240,2013-10-09 01:15:00
6:35 PM,50.0,19.4,30,29.87,10.0,SW,5.8,-,N/A,,Clear,230,2013-10-09 01:35:00
6:55 PM,48.2,19.4,32,29.87,10.0,SW,4.6,-,N/A,,Clear,230,2013-10-09 01:55:00
7:15 PM,48.2,21.2,34,29.87,10.0,WSW,5.8,-,N/A,,Clear,250,2013-10-09 02:15:00
7:35 PM,48.2,21.2,34,29.86,10.0,West,5.8,-,N/A,,Scattered Clouds,260,2013-10-09 02:35:00
7:55 PM,48.2,23.0,37,29.86,10.0,West,3.5,-,N/A,,Mostly Cloudy,260,2013-10-09 02:55:00
8:15 PM,48.2,23.0,37,29.86,10.0,Calm,Calm,-,N/A,,Scattered Clouds,0,2013-10-09 03:15:00
8:35 PM,46.4,21.2,37,29.86,10.0,Calm,Calm,-,N/A,,Scattered Clouds,0,2013-10-09 03:35:00
8:55 PM,44.6,21.2,39,29.85,10.0,SE,3.5,-,N/A,,Mostly Cloudy,140,2013-10-09 03:55:00
9:15 PM,41.0,19.4,42,29.85,10.0,Calm,Calm,-,N/A,,Mostly Cloudy,0,2013-10-09 04:15:00
9:35 PM,41.0,21.2,45,29.84,10.0,ESE,3.5,-,N/A,,Scattered Clouds,110,2013-10-09 04:35:00
9:55 PM,41.0,21.2,45,29.84,10.0,South,3.5,-,N/A,,Clear,190,2013-10-09 04:55:00
10:15 PM,41.0,23.0,49,29.83,10.0,Calm,Calm,-,N/A,,Clear,0,2013-10-09 05:15:00
10:35 PM,41.0,21.2,45,29.82,10.0,SE,4.6,-,N/A,,Clear,130,2013-10-09 05:35:00
10:55 PM,39.2,21.2,49,29.81,10.0,Calm,Calm,-,N/A,,Clear,0,2013-10-09 05:55:00
11:15 PM,39.2,21.2,49,29.80,10.0,Calm,Calm,-,N/A,,Partly Cloudy,0,2013-10-09 06:15:00
11:35 PM,41.0,23.0,49,29.79,10.0,Calm,Calm,-,N/A,,Mostly Cloudy,0,2013-10-09 06:35:00
11:55 PM,39.2,23.0,52,29.78,10.0,NW,3.5,-,N/A,,Partly Cloudy,310,2013-10-09 06:55:00